Time;durP1;ratioP1;P1;durP2;ratioP2;P2;SDS_P1;SDS_P2;PMS_P1;PMS_P2;Temp;Humidity;BMP_temperature;BMP_pressure;BME280_temperature;BME280_humidity;BME280_pressure;Samples;Min_cycle;Max_cycle;Signal;HPM_P1;HPM_P2
2023/01/07 00:01:14;;;;;;;;;;;;;;;;;;6126838;23;20340;-77
2023/01/07 00:03:40;;;;;;;;;;;;;;;;;;6127285;23;19908;-77
2023/01/07 00:06:06;;;;;;;;;;;;;;;;;;6127160;23;19909;-77
2023/01/07 00:08:34;;;;;;;;;;;;;;;;;;6127134;23;20331;-78
2023/01/07 00:10:59;;;;;;;;;;;;;;;;;;6127251;23;19935;-76
2023/01/07 00:13:25;;;;;;;;;;;;;;;;;;6127768;23;19901;-77
2023/01/07 00:15:51;;;;;;;;;;;;;;;;;;6127447;23;19901;-76
2023/01/07 00:18:17;;;;;;;;;;;;;;;;;;6127191;23;19912;-76
2023/01/07 00:20:43;;;;;;;;;;;;;;;;;;6127198;23;19976;-77
2023/01/07 00:23:09;;;;;;;;;;;;;;;;;;6127143;23;20243;-77
2023/01/07 00:25:35;;;;;;;;;;;;;;;;;;6127710;23;20368;-77
2023/01/07 00:28:01;;;;;;;;;;;;;;;;;;6127050;23;19901;-78
2023/01/07 00:30:27;;;;;;;;;;;;;;;;;;6127289;23;20155;-76
2023/01/07 00:33:03;;;;;;;;;;;;;;;;;;6127023;23;19936;-77
2023/01/07 00:35:29;;;;;;;;;;;;;;;;;;6101470;23;19904;-77
2023/01/07 00:37:55;;;;;;;;;;;;;;;;;;6127247;23;19908;-77
2023/01/07 00:40:21;;;;;;;;;;;;;;;;;;6101057;23;19901;-77
2023/01/07 00:42:53;;;;;;;;;;;;;;;;;;6126941;23;19904;-77
2023/01/07 00:45:19;;;;;;;;;;;;;;;;;;6126963;23;20244;-76
2023/01/07 00:47:45;;;;;;;;;;;;;;;;;;6127293;23;19912;-77
2023/01/07 00:50:11;;;;;;;;;;;;;;;;;;6100906;23;19901;-77
2023/01/07 00:52:37;;;;;;;;;;;;;;;;;;6126902;23;19901;-76
2023/01/07 00:55:03;;;;;;;;;;;;;;;;;;6126964;23;19967;-77
2023/01/07 00:57:28;;;;;;;;;;;;;;;;;;6127085;23;19900;-77
2023/01/07 00:59:54;;;;;;;;;;;;;;;;;;6126732;23;19983;-76
2023/01/07 01:02:20;;;;;;;;;;;;;;;;;;6126926;23;19933;-78
2023/01/07 01:04:46;;;;;;;;;;;;;;;;;;6127121;23;19901;-76
2023/01/07 01:07:12;;;;;;;;;;;;;;;;;;6126782;23;20243;-77
2023/01/07 01:09:38;;;;;;;;;;;;;;;;;;6100921;23;20338;-77
2023/01/07 01:12:04;;;;;;;;;;;;;;;;;;6126835;23;19976;-77
2023/01/07 01:14:30;;;;;;;;;;;;;;;;;;6126815;23;19908;-77
2023/01/07 01:16:56;;;;;;;;;;;;;;;;;;6127357;23;20327;-77
2023/01/07 01:19:22;;;;;;;;;;;;;;;;;;6126853;23;19901;-78
2023/01/07 01:21:48;;;;;;;;;;;;;;;;;;6127098;23;19912;-76
2023/01/07 01:24:14;;;;;;;;;;;;;;;;;;6126935;23;19908;-76
2023/01/07 01:26:39;;;;;;;;;;;;;;;;;;6126664;23;19987;-77
2023/01/07 01:29:05;;;;;;;;;;;;;;;;;;6126800;23;19901;-77
2023/01/07 01:31:31;;;;;;;;;;;;;;;;;;6126932;23;19901;-76
2023/01/07 01:33:58;;;;;;;;;;;;;;;;;;6126750;23;19983;-77
2023/01/07 01:36:24;;;;;;;;;;;;;;;;;;6126769;23;19901;-76
2023/01/07 01:38:50;;;;;;;;;;;;;;;;;;6100810;23;20350;-76
2023/01/07 01:41:16;;;;;;;;;;;;;;;;;;6126740;23;19955;-76
2023/01/07 01:43:43;;;;;;;;;;;;;;;;;;6126857;23;20240;-77
2023/01/07 01:46:09;;;;;;;;;;;;;;;;;;6126609;23;19987;-76
2023/01/07 01:48:35;;;;;;;;;;;;;;;;;;6100761;23;20346;-77
2023/01/07 01:51:01;;;;;;;;;;;;;;;;;;6127023;23;19901;-77
2023/01/07 01:53:27;;;;;;;;;;;;;;;;;;6126543;23;19901;-77
2023/01/07 01:55:53;;;;;;;;;;;;;;;;;;6128395;23;19908;-77
2023/01/07 01:58:18;;;;;;;;;;;;;;;;;;6128504;23;19972;-76
2023/01/07 02:00:44;;;;;;;;;;;;;;;;;;6128318;23;20248;-77
2023/01/07 02:03:10;;;;;;;;;;;;;;;;;;6128888;23;20343;-76
2023/01/07 02:05:36;;;;;;;;;;;;;;;;;;6128394;23;19901;-76
2023/01/07 02:08:02;;;;;;;;;;;;;;;;;;6128399;23;19979;-76
2023/01/07 02:10:30;;;;;;;;;;;;;;;;;;6128538;23;19908;-78
2023/01/07 02:12:56;;;;;;;;;;;;;;;;;;6128376;23;19901;-77
2023/01/07 02:15:22;;;;;;;;;;;;;;;;;;6128906;23;19901;-76
2023/01/07 02:17:48;;;;;;;;;;;;;;;;;;6128310;23;19908;-76
2023/01/07 02:20:14;;;;;;;;;;;;;;;;;;6128297;23;19972;-77
2023/01/07 02:22:40;;;;;;;;;;;;;;;;;;6128356;23;19905;-76
2023/01/07 02:25:06;;;;;;;;;;;;;;;;;;6128243;23;20321;-76
2023/01/07 02:27:32;;;;;;;;;;;;;;;;;;6128697;23;19959;-77
2023/01/07 02:29:58;;;;;;;;;;;;;;;;;;6102218;23;19900;-77
2023/01/07 02:32:24;;;;;;;;;;;;;;;;;;6128121;23;19952;-77
2023/01/07 02:34:50;;;;;;;;;;;;;;;;;;6128341;23;19901;-77
2023/01/07 02:37:16;;;;;;;;;;;;;;;;;;6102204;23;19907;-76
2023/01/07 02:39:42;;;;;;;;;;;;;;;;;;6128462;23;19924;-76
2023/01/07 02:42:08;;;;;;;;;;;;;;;;;;6102256;23;19911;-76
2023/01/07 02:44:34;;;;;;;;;;;;;;;;;;6128035;23;19901;-77
2023/01/07 02:47:00;;;;;;;;;;;;;;;;;;6128304;23;19912;-77
2023/01/07 02:49:26;;;;;;;;;;;;;;;;;;6128071;23;19901;-76
2023/01/07 02:51:52;;;;;;;;;;;;;;;;;;6102020;23;20354;-76
2023/01/07 02:54:18;;;;;;;;;;;;;;;;;;6128085;23;19971;-77
2023/01/07 02:56:44;;;;;;;;;;;;;;;;;;6128133;23;19914;-76
2023/01/07 02:59:10;;;;;;;;;;;;;;;;;;6127783;23;20309;-77
2023/01/07 03:01:36;;;;;;;;;;;;;;;;;;6128044;23;20331;-77
2023/01/07 03:04:01;;;;;;;;;;;;;;;;;;6128474;23;19901;-77
2023/01/07 03:06:27;;;;;;;;;;;;;;;;;;6127638;23;19916;-76
2023/01/07 03:08:53;;;;;;;;;;;;;;;;;;6127912;23;19967;-77
2023/01/07 03:11:19;;;;;;;;;;;;;;;;;;6127834;23;19948;-77
2023/01/07 03:13:45;;;;;;;;;;;;;;;;;;6127790;23;19927;-77
2023/01/07 03:16:11;;;;;;;;;;;;;;;;;;6127852;23;19936;-76
2023/01/07 03:18:37;;;;;;;;;;;;;;;;;;6127847;23;19906;-77
2023/01/07 03:21:03;;;;;;;;;;;;;;;;;;6127808;23;19901;-77
2023/01/07 03:23:29;;;;;;;;;;;;;;;;;;6127836;23;19908;-77
2023/01/07 03:25:55;;;;;;;;;;;;;;;;;;6127659;23;19987;-78
2023/01/07 03:28:21;;;;;;;;;;;;;;;;;;6127616;23;19907;-77
2023/01/07 03:30:47;;;;;;;;;;;;;;;;;;6128143;23;19901;-77
2023/01/07 03:33:13;;;;;;;;;;;;;;;;;;6127968;23;20334;-76
2023/01/07 03:35:38;;;;;;;;;;;;;;;;;;6127621;23;19929;-77
2023/01/07 03:38:04;;;;;;;;;;;;;;;;;;6127631;23;19904;-77
2023/01/07 03:40:30;;;;;;;;;;;;;;;;;;6127718;23;19901;-76
2023/01/07 03:42:56;;;;;;;;;;;;;;;;;;6127856;23;19907;-77
2023/01/07 03:45:22;;;;;;;;;;;;;;;;;;6127545;23;19908;-77
2023/01/07 03:47:48;;;;;;;;;;;;;;;;;;6127405;23;19912;-76
2023/01/07 03:50:14;;;;;;;;;;;;;;;;;;6127502;23;19900;-77
2023/01/07 03:52:40;;;;;;;;;;;;;;;;;;6127350;23;19909;-77
2023/01/07 03:55:06;;;;;;;;;;;;;;;;;;6127740;23;19905;-77
2023/01/07 03:57:32;;;;;;;;;;;;;;;;;;6127566;23;19901;-78
2023/01/07 03:59:58;;;;;;;;;;;;;;;;;;6085270;23;19917;-76
2023/01/07 04:02:24;;;;;;;;;;;;;;;;;;6069324;23;20240;-77
2023/01/07 04:04:50;;;;;;;;;;;;;;;;;;6069565;23;19989;-76
2023/01/07 04:07:16;;;;;;;;;;;;;;;;;;6069189;23;19911;-76
2023/01/07 04:09:41;;;;;;;;;;;;;;;;;;6067738;23;19933;-76
2023/01/07 04:12:07;;;;;;;;;;;;;;;;;;6069314;23;19905;-76
2023/01/07 04:14:33;;;;;;;;;;;;;;;;;;6069248;23;19902;-77
2023/01/07 04:16:59;;;;;;;;;;;;;;;;;;6067509;23;19901;-78
2023/01/07 04:19:25;;;;;;;;;;;;;;;;;;6069265;23;19908;-76
2023/01/07 04:21:51;;;;;;;;;;;;;;;;;;6069253;23;19908;-77
2023/01/07 04:24:17;;;;;;;;;;;;;;;;;;6069146;23;19969;-77
2023/01/07 04:26:43;;;;;;;;;;;;;;;;;;6067503;23;19906;-77
2023/01/07 04:29:09;;;;;;;;;;;;;;;;;;6069398;23;19905;-77
2023/01/07 04:31:35;;;;;;;;;;;;;;;;;;6069291;23;19906;-77
2023/01/07 04:34:01;;;;;;;;;;;;;;;;;;6069121;23;20281;-77
2023/01/07 04:36:27;;;;;;;;;;;;;;;;;;6069053;23;20391;-76
2023/01/07 04:38:53;;;;;;;;;;;;;;;;;;6069006;23;19905;-77
2023/01/07 04:41:18;;;;;;;;;;;;;;;;;;6069651;23;20309;-78
2023/01/07 04:43:44;;;;;;;;;;;;;;;;;;6069005;23;19909;-79
2023/01/07 04:46:10;;;;;;;;;;;;;;;;;;6069189;23;19912;-78
2023/01/07 04:48:36;;;;;;;;;;;;;;;;;;6068972;23;19902;-78
2023/01/07 04:51:02;;;;;;;;;;;;;;;;;;6068913;23;19981;-78
2023/01/07 04:53:28;;;;;;;;;;;;;;;;;;6069231;23;19906;-78
2023/01/07 04:55:54;;;;;;;;;;;;;;;;;;6068889;23;19933;-77
2023/01/07 04:58:20;;;;;;;;;;;;;;;;;;6069379;23;19902;-77
2023/01/07 05:00:46;;;;;;;;;;;;;;;;;;6110467;23;20347;-77
2023/01/07 05:03:12;;;;;;;;;;;;;;;;;;6127028;23;19901;-77
2023/01/07 05:05:38;;;;;;;;;;;;;;;;;;6126819;23;19908;-76
2023/01/07 05:08:04;;;;;;;;;;;;;;;;;;6126893;23;19901;-77
2023/01/07 05:10:30;;;;;;;;;;;;;;;;;;6126904;23;19908;-76
2023/01/07 05:12:56;;;;;;;;;;;;;;;;;;6127328;23;19900;-76
2023/01/07 05:15:21;;;;;;;;;;;;;;;;;;6126848;23;20320;-77
2023/01/07 05:17:47;;;;;;;;;;;;;;;;;;6126990;23;19905;-77
2023/01/07 05:20:14;;;;;;;;;;;;;;;;;;6126793;23;19908;-77
2023/01/07 05:22:40;;;;;;;;;;;;;;;;;;6126810;23;20319;-77
2023/01/07 05:25:06;;;;;;;;;;;;;;;;;;6127118;23;19908;-78
2023/01/07 05:27:32;;;;;;;;;;;;;;;;;;6126645;23;19996;-77
2023/01/07 05:29:57;;;;;;;;;;;;;;;;;;6127847;23;19905;-77
2023/01/07 05:32:23;;;;;;;;;;;;;;;;;;6128771;23;19901;-76
2023/01/07 05:34:49;;;;;;;;;;;;;;;;;;6129114;23;20023;-77
2023/01/07 05:37:15;;;;;;;;;;;;;;;;;;6102764;23;19901;-77
2023/01/07 05:39:41;;;;;;;;;;;;;;;;;;6128692;23;19901;-77
2023/01/07 05:42:07;;;;;;;;;;;;;;;;;;6128678;23;19955;-76
2023/01/07 05:44:33;;;;;;;;;;;;;;;;;;6128588;23;19900;-77
2023/01/07 05:46:59;;;;;;;;;;;;;;;;;;6102582;23;19956;-77
2023/01/07 05:49:25;;;;;;;;;;;;;;;;;;6128624;23;19976;-76
2023/01/07 05:51:51;;;;;;;;;;;;;;;;;;6102740;23;19907;-77
2023/01/07 05:54:17;;;;;;;;;;;;;;;;;;6128474;23;19936;-76
2023/01/07 05:56:43;;;;;;;;;;;;;;;;;;6128547;23;19900;-76
2023/01/07 05:59:09;;;;;;;;;;;;;;;;;;6128223;23;19909;-76
2023/01/07 06:01:34;;;;;;;;;;;;;;;;;;6128657;23;19905;-76
2023/01/07 06:04:00;;;;;;;;;;;;;;;;;;6128451;23;19901;-75
2023/01/07 06:06:26;;;;;;;;;;;;;;;;;;6128368;23;20447;-75
2023/01/07 06:08:52;;;;;;;;;;;;;;;;;;6128541;23;19901;-75
2023/01/07 06:11:18;;;;;;;;;;;;;;;;;;6128424;23;19923;-74
2023/01/07 06:13:44;;;;;;;;;;;;;;;;;;6102338;23;20331;-76
2023/01/07 06:16:10;;;;;;;;;;;;;;;;;;6128423;23;19908;-75
2023/01/07 06:18:36;;;;;;;;;;;;;;;;;;6128286;23;19901;-74
2023/01/07 06:21:02;;;;;;;;;;;;;;;;;;6128325;23;19901;-73
2023/01/07 06:23:28;;;;;;;;;;;;;;;;;;6128482;23;19936;-76
2023/01/07 06:25:54;;;;;;;;;;;;;;;;;;6128145;23;19908;-73
2023/01/07 06:28:20;;;;;;;;;;;;;;;;;;6128241;23;19901;-76
2023/01/07 06:30:46;;;;;;;;;;;;;;;;;;6128264;23;19908;-75
2023/01/07 06:33:12;;;;;;;;;;;;;;;;;;6102226;23;19987;-75
2023/01/07 06:35:38;;;;;;;;;;;;;;;;;;6128296;23;20331;-75
2023/01/07 06:38:04;;;;;;;;;;;;;;;;;;6102195;23;20338;-76
2023/01/07 06:40:30;;;;;;;;;;;;;;;;;;6127975;23;19928;-75
2023/01/07 06:42:55;;;;;;;;;;;;;;;;;;6128106;23;19908;-74
2023/01/07 06:45:21;;;;;;;;;;;;;;;;;;6128328;23;19948;-75
2023/01/07 06:47:47;;;;;;;;;;;;;;;;;;6128000;23;19935;-75
2023/01/07 06:50:13;;;;;;;;;;;;;;;;;;6128590;23;19901;-77
2023/01/07 06:52:39;;;;;;;;;;;;;;;;;;6128201;23;19909;-77
2023/01/07 06:55:05;;;;;;;;;;;;;;;;;;6128015;23;19905;-76
2023/01/07 06:57:31;;;;;;;;;;;;;;;;;;6128122;23;19928;-77
2023/01/07 06:59:57;;;;;;;;;;;;;;;;;;6127794;23;19988;-77
2023/01/07 07:02:23;;;;;;;;;;;;;;;;;;6127912;23;19980;-77
2023/01/07 07:04:49;;;;;;;;;;;;;;;;;;6127960;23;19908;-79
2023/01/07 07:07:15;;;;;;;;;;;;;;;;;;6127886;23;19927;-77
2023/01/07 07:09:41;;;;;;;;;;;;;;;;;;6127808;23;19988;-77
2023/01/07 07:12:07;;;;;;;;;;;;;;;;;;6128036;23;19900;-78
2023/01/07 07:14:33;;;;;;;;;;;;;;;;;;6127849;23;20244;-75
2023/01/07 07:16:58;;;;;;;;;;;;;;;;;;6127822;23;20316;-77
2023/01/07 07:19:24;;;;;;;;;;;;;;;;;;6127780;23;19901;-76
2023/01/07 07:21:50;;;;;;;;;;;;;;;;;;6127905;23;19900;-77
2023/01/07 07:24:16;;;;;;;;;;;;;;;;;;6128226;23;19908;-76
2023/01/07 07:26:42;;;;;;;;;;;;;;;;;;6127565;23;19905;-75
2023/01/07 07:29:08;;;;;;;;;;;;;;;;;;6127640;23;19980;-76
2023/01/07 07:31:34;;;;;;;;;;;;;;;;;;6127649;23;19901;-76
2023/01/07 07:34:00;;;;;;;;;;;;;;;;;;6127570;23;19907;-75
2023/01/07 07:36:26;;;;;;;;;;;;;;;;;;6127743;23;19972;-78
2023/01/07 07:38:52;;;;;;;;;;;;;;;;;;6127601;23;20317;-77
2023/01/07 07:41:18;;;;;;;;;;;;;;;;;;6127591;23;20387;-78
2023/01/07 07:43:44;;;;;;;;;;;;;;;;;;6127543;23;19901;-78
2023/01/07 07:46:10;;;;;;;;;;;;;;;;;;6127903;23;19959;-77
2023/01/07 07:48:36;;;;;;;;;;;;;;;;;;6101478;23;19901;-78
2023/01/07 07:51:01;;;;;;;;;;;;;;;;;;6127524;23;19901;-77
2023/01/07 07:53:28;;;;;;;;;;;;;;;;;;6127156;23;19912;-78
2023/01/07 07:55:54;;;;;;;;;;;;;;;;;;6127767;23;20216;-77
2023/01/07 07:58:20;;;;;;;;;;;;;;;;;;6127817;23;19925;-77
2023/01/07 08:00:45;;;;;;;;;;;;;;;;;;6127595;23;19920;-78
2023/01/07 08:03:11;;;;;;;;;;;;;;;;;;6101389;23;19901;-78
2023/01/07 08:05:37;;;;;;;;;;;;;;;;;;6101416;23;19912;-77
2023/01/07 08:08:03;;;;;;;;;;;;;;;;;;6127624;23;19960;-76
2023/01/07 08:10:29;;;;;;;;;;;;;;;;;;6127284;23;19901;-77
2023/01/07 08:12:55;;;;;;;;;;;;;;;;;;6101205;23;19901;-78
2023/01/07 08:15:21;;;;;;;;;;;;;;;;;;6127222;23;19900;-77
2023/01/07 08:17:47;;;;;;;;;;;;;;;;;;6127232;23;19923;-76
2023/01/07 08:20:13;;;;;;;;;;;;;;;;;;6127167;23;20213;-78
2023/01/07 08:22:39;;;;;;;;;;;;;;;;;;6127527;23;19961;-76
2023/01/07 08:25:05;;;;;;;;;;;;;;;;;;6127171;23;19901;-76
2023/01/07 08:27:31;;;;;;;;;;;;;;;;;;6127227;23;19932;-76
2023/01/07 08:29:57;;;;;;;;;;;;;;;;;;6101326;23;19901;-77
2023/01/07 08:32:23;;;;;;;;;;;;;;;;;;6127177;23;19900;-76
2023/01/07 08:34:49;;;;;;;;;;;;;;;;;;6127315;23;19901;-78
2023/01/07 08:37:15;;;;;;;;;;;;;;;;;;6101222;23;19905;-76
2023/01/07 08:39:40;;;;;;;;;;;;;;;;;;6127161;23;19901;-77
2023/01/07 08:42:07;;;;;;;;;;;;;;;;;;6127538;23;19947;-77
2023/01/07 08:44:33;;;;;;;;;;;;;;;;;;6095071;23;19909;-79
2023/01/07 08:46:59;;;;;;;;;;;;;;;;;;6126729;23;20224;-77
2023/01/07 08:49:25;;;;;;;;;;;;;;;;;;6127310;23;19974;-76
2023/01/07 08:51:51;;;;;;;;;;;;;;;;;;6126794;23;19907;-76
2023/01/07 08:54:17;;;;;;;;;;;;;;;;;;6126633;23;19928;-74
2023/01/07 08:56:43;;;;;;;;;;;;;;;;;;6127249;23;19908;-76
2023/01/07 08:59:09;;;;;;;;;;;;;;;;;;6100823;23;19905;-75
2023/01/07 09:01:35;;;;;;;;;;;;;;;;;;6127094;23;19924;-74
2023/01/07 09:04:01;;;;;;;;;;;;;;;;;;6126529;23;20324;-75
2023/01/07 09:06:27;;;;;;;;;;;;;;;;;;6127033;23;19904;-74
2023/01/07 09:08:53;;;;;;;;;;;;;;;;;;6127017;23;19901;-75
2023/01/07 09:11:19;;;;;;;;;;;;;;;;;;6127056;23;20318;-73
2023/01/07 09:13:45;;;;;;;;;;;;;;;;;;6126805;23;19976;-77
2023/01/07 09:16:11;;;;;;;;;;;;;;;;;;6126941;23;19956;-76
2023/01/07 09:18:37;;;;;;;;;;;;;;;;;;6101270;23;19901;-76
2023/01/07 09:21:04;;;;;;;;;;;;;;;;;;6127109;23;19901;-77
2023/01/07 09:23:30;;;;;;;;;;;;;;;;;;6126550;23;20235;-77
2023/01/07 09:25:55;;;;;;;;;;;;;;;;;;6126640;23;19972;-75
2023/01/07 09:28:21;;;;;;;;;;;;;;;;;;6126864;23;19975;-77
2023/01/07 09:30:47;;;;;;;;;;;;;;;;;;6127152;23;20268;-75
2023/01/07 09:33:13;;;;;;;;;;;;;;;;;;6126465;23;19953;-75
2023/01/07 09:35:39;;;;;;;;;;;;;;;;;;6126421;23;19948;-76
2023/01/07 09:38:05;;;;;;;;;;;;;;;;;;6126795;23;19904;-75
2023/01/07 09:40:31;;;;;;;;;;;;;;;;;;6126652;23;19928;-74
2023/01/07 09:42:57;;;;;;;;;;;;;;;;;;6073623;23;19908;-75
2023/01/07 09:45:23;;;;;;;;;;;;;;;;;;6126491;23;19897;-76
2023/01/07 09:47:49;;;;;;;;;;;;;;;;;;6126244;23;19911;-75
2023/01/07 09:50:15;;;;;;;;;;;;;;;;;;6127052;23;19900;-74
2023/01/07 09:52:41;;;;;;;;;;;;;;;;;;6100588;23;20292;-74
2023/01/07 09:55:06;;;;;;;;;;;;;;;;;;6126585;23;19924;-75
2023/01/07 09:57:32;;;;;;;;;;;;;;;;;;6126587;23;19905;-75
2023/01/07 09:59:58;;;;;;;;;;;;;;;;;;6100565;23;19917;-75
2023/01/07 10:02:24;;;;;;;;;;;;;;;;;;6126805;23;20212;-76
2023/01/07 10:04:50;;;;;;;;;;;;;;;;;;6126268;23;20326;-76
2023/01/07 10:07:16;;;;;;;;;;;;;;;;;;6126442;23;19980;-76
2023/01/07 10:09:42;;;;;;;;;;;;;;;;;;6126823;23;19955;-77
2023/01/07 10:12:08;;;;;;;;;;;;;;;;;;6126073;23;19909;-75
2023/01/07 10:14:34;;;;;;;;;;;;;;;;;;6125708;23;19908;-75
2023/01/07 10:17:00;;;;;;;;;;;;;;;;;;6127930;23;19980;-75
2023/01/07 10:19:26;;;;;;;;;;;;;;;;;;6128151;23;19964;-77
2023/01/07 10:21:52;;;;;;;;;;;;;;;;;;6128378;23;19932;-76
2023/01/07 10:24:18;;;;;;;;;;;;;;;;;;6128048;23;19909;-76
2023/01/07 10:26:45;;;;;;;;;;;;;;;;;;6102439;23;19912;-75
2023/01/07 10:29:11;;;;;;;;;;;;;;;;;;6128447;23;19900;-76
2023/01/07 10:31:37;;;;;;;;;;;;;;;;;;6103061;23;19908;-76
2023/01/07 10:34:03;;;;;;;;;;;;;;;;;;6128422;23;19900;-75
2023/01/07 10:36:29;;;;;;;;;;;;;;;;;;6128968;23;20239;-76
2023/01/07 10:38:54;;;;;;;;;;;;;;;;;;6129160;23;19956;-75
2023/01/07 10:41:21;;;;;;;;;;;;;;;;;;6129011;23;19956;-76
2023/01/07 10:43:47;;;;;;;;;;;;;;;;;;6102066;23;19905;-77
2023/01/07 10:46:13;;;;;;;;;;;;;;;;;;6128466;23;20328;-78
2023/01/07 10:48:39;;;;;;;;;;;;;;;;;;6128401;23;20323;-73
2023/01/07 10:51:05;;;;;;;;;;;;;;;;;;6128749;23;19924;-74
2023/01/07 10:53:31;;;;;;;;;;;;;;;;;;6128293;23;19935;-75
2023/01/07 10:55:57;;;;;;;;;;;;;;;;;;6128460;23;19947;-77
2023/01/07 10:58:23;;;;;;;;;;;;;;;;;;6128786;23;20225;-76
2023/01/07 11:00:49;;;;;;;;;;;;;;;;;;6128667;23;19913;-77
2023/01/07 11:03:15;;;;;;;;;;;;;;;;;;6128398;23;20384;-77
2023/01/07 11:05:41;;;;;;;;;;;;;;;;;;6128482;23;19901;-75
2023/01/07 11:08:06;;;;;;;;;;;;;;;;;;6128258;23;19904;-74
2023/01/07 11:10:32;;;;;;;;;;;;;;;;;;6128511;23;19905;-76
2023/01/07 11:12:58;;;;;;;;;;;;;;;;;;6128824;23;20252;-76
2023/01/07 11:15:24;;;;;;;;;;;;;;;;;;6128636;23;19980;-77
2023/01/07 11:17:50;;;;;;;;;;;;;;;;;;6128499;23;19905;-77
2023/01/07 11:20:16;;;;;;;;;;;;;;;;;;6128434;23;19983;-74
2023/01/07 11:22:42;;;;;;;;;;;;;;;;;;6128983;23;19908;-78
2023/01/07 11:25:08;;;;;;;;;;;;;;;;;;6128472;23;20240;-78
2023/01/07 11:27:34;;;;;;;;;;;;;;;;;;6127174;23;20335;-77
2023/01/07 11:30:00;;;;;;;;;;;;;;;;;;6128293;23;20281;-77
2023/01/07 11:32:26;;;;;;;;;;;;;;;;;;6127954;23;19908;-76
2023/01/07 11:34:52;;;;;;;;;;;;;;;;;;6128062;23;19901;-74
2023/01/07 11:37:18;;;;;;;;;;;;;;;;;;6101971;23;19904;-78
2023/01/07 11:39:44;;;;;;;;;;;;;;;;;;6127581;23;19901;-77
2023/01/07 11:44:55;;;;;;;;;;;;;;;;;;6127311;23;19908;-77
2023/01/07 11:47:21;;;;;;;;;;;;;;;;;;6127387;23;19905;-76
2023/01/07 11:49:47;;;;;;;;;;;;;;;;;;6126715;23;19908;-77
2023/01/07 11:52:12;;;;;;;;;;;;;;;;;;6126917;23;19924;-76
2023/01/07 11:54:38;;;;;;;;;;;;;;;;;;6101409;23;19928;-77
2023/01/07 11:57:04;;;;;;;;;;;;;;;;;;6127588;23;20210;-77
2023/01/07 11:59:30;;;;;;;;;;;;;;;;;;6127149;23;20324;-79
2023/01/07 12:01:58;;;;;;;;;;;;;;;;;;6127807;23;19933;-78
2023/01/07 12:04:24;;;;;;;;;;;;;;;;;;6127707;23;19900;-75
2023/01/07 12:06:50;;;;;;;;;;;;;;;;;;6101225;23;19932;-77
2023/01/07 12:09:15;;;;;;;;;;;;;;;;;;6127331;23;20263;-78
2023/01/07 12:11:41;;;;;;;;;;;;;;;;;;6127569;23;19908;-77
2023/01/07 12:14:07;;;;;;;;;;;;;;;;;;6127309;23;20267;-75
2023/01/07 12:16:34;;;;;;;;;;;;;;;;;;6127498;23;20320;-78
2023/01/07 12:19:00;;;;;;;;;;;;;;;;;;6101233;23;19981;-77
2023/01/07 12:21:26;;;;;;;;;;;;;;;;;;6127195;23;19920;-78
2023/01/07 12:23:52;;;;;;;;;;;;;;;;;;6127175;23;19901;-78
2023/01/07 12:26:18;;;;;;;;;;;;;;;;;;6127211;23;19932;-78
2023/01/07 12:28:44;;;;;;;;;;;;;;;;;;6127159;23;20268;-77
2023/01/07 12:31:10;;;;;;;;;;;;;;;;;;6127206;23;19901;-79
2023/01/07 12:33:36;;;;;;;;;;;;;;;;;;6127106;23;19925;-79
2023/01/07 12:36:02;;;;;;;;;;;;;;;;;;6127069;23;19901;-76
2023/01/07 12:38:28;;;;;;;;;;;;;;;;;;6126989;23;19928;-76
2023/01/07 12:40:54;;;;;;;;;;;;;;;;;;6126980;23;19980;-77
2023/01/07 12:43:20;;;;;;;;;;;;;;;;;;6127017;23;19901;-76
2023/01/07 12:45:45;;;;;;;;;;;;;;;;;;6127029;23;19901;-76
2023/01/07 12:48:11;;;;;;;;;;;;;;;;;;6126847;23;19940;-79
2023/01/07 12:50:37;;;;;;;;;;;;;;;;;;6127276;23;20240;-76
2023/01/07 12:53:03;;;;;;;;;;;;;;;;;;6126873;23;20316;-78
2023/01/07 12:55:29;;;;;;;;;;;;;;;;;;6126918;23;19908;-77
2023/01/07 12:57:55;;;;;;;;;;;;;;;;;;6126894;23;19908;-79
2023/01/07 13:00:21;;;;;;;;;;;;;;;;;;6126959;23;20256;-78
2023/01/07 13:02:49;;;;;;;;;;;;;;;;;;6126884;23;19924;-78
2023/01/07 13:05:16;;;;;;;;;;;;;;;;;;6126933;23;19901;-77
2023/01/07 13:07:42;;;;;;;;;;;;;;;;;;6100800;23;20239;-78
2023/01/07 13:10:09;;;;;;;;;;;;;;;;;;6100932;23;19905;-79
2023/01/07 13:12:41;;;;;;;;;;;;;;;;;;6126885;23;19939;-78
2023/01/07 13:15:07;;;;;;;;;;;;;;;;;;6100886;23;19901;-76
2023/01/07 13:17:33;;;;;;;;;;;;;;;;;;6126813;23;19905;-76
2023/01/07 13:19:59;;;;;;;;;;;;;;;;;;6126914;23;19901;-77
2023/01/07 13:22:25;;;;;;;;;;;;;;;;;;6126970;23;20236;-77
2023/01/07 13:24:51;;;;;;;;;;;;;;;;;;6126772;23;19908;-76
2023/01/07 13:27:17;;;;;;;;;;;;;;;;;;6126653;23;19904;-76
2023/01/07 13:29:43;;;;;;;;;;;;;;;;;;6127065;23;19905;-75
2023/01/07 13:32:09;;;;;;;;;;;;;;;;;;6126752;23;19979;-76
2023/01/07 13:34:36;;;;;;;;;;;;;;;;;;6126741;23;19900;-78
2023/01/07 13:37:02;;;;;;;;;;;;;;;;;;6126785;23;19901;-78
2023/01/07 13:39:28;;;;;;;;;;;;;;;;;;6126744;23;20028;-75
2023/01/07 13:41:54;;;;;;;;;;;;;;;;;;6100767;23;19908;-77
2023/01/07 13:44:20;;;;;;;;;;;;;;;;;;6126690;23;19901;-75
2023/01/07 13:46:46;;;;;;;;;;;;;;;;;;6126877;23;19905;-75
2023/01/07 13:49:12;;;;;;;;;;;;;;;;;;6126663;23;19900;-77
2023/01/07 13:51:38;;;;;;;;;;;;;;;;;;6128066;23;19952;-79
2023/01/07 13:54:04;;;;;;;;;;;;;;;;;;6128621;23;19932;-77
2023/01/07 13:56:30;;;;;;;;;;;;;;;;;;6128519;23;19901;-77
2023/01/07 13:58:56;;;;;;;;;;;;;;;;;;6128748;23;19901;-77
2023/01/07 14:01:22;;;;;;;;;;;;;;;;;;6128032;23;19948;-78
2023/01/07 14:03:48;;;;;;;;;;;;;;;;;;6128768;23;20319;-77
2023/01/07 14:06:14;;;;;;;;;;;;;;;;;;6128454;23;19913;-77
2023/01/07 14:08:40;;;;;;;;;;;;;;;;;;6128499;23;20359;-76
2023/01/07 14:11:06;;;;;;;;;;;;;;;;;;6128786;23;19901;-76
2023/01/07 14:13:32;;;;;;;;;;;;;;;;;;6128707;23;19901;-76
2023/01/07 14:15:58;;;;;;;;;;;;;;;;;;6128530;23;19912;-77
2023/01/07 14:18:24;;;;;;;;;;;;;;;;;;6128415;23;19976;-77
2023/01/07 14:20:50;;;;;;;;;;;;;;;;;;6102398;23;20328;-77
2023/01/07 14:23:16;;;;;;;;;;;;;;;;;;6128677;23;19983;-76
2023/01/07 14:25:42;;;;;;;;;;;;;;;;;;6128337;23;19907;-76
2023/01/07 14:28:08;;;;;;;;;;;;;;;;;;6128207;23;19999;-78
2023/01/07 14:30:34;;;;;;;;;;;;;;;;;;6128212;23;19979;-77
2023/01/07 14:33:01;;;;;;;;;;;;;;;;;;6128217;23;19901;-78
2023/01/07 14:35:27;;;;;;;;;;;;;;;;;;6128397;23;19980;-77
2023/01/07 14:37:52;;;;;;;;;;;;;;;;;;6128322;23;19901;-78
2023/01/07 14:40:18;;;;;;;;;;;;;;;;;;6128104;23;19912;-77
2023/01/07 14:42:44;;;;;;;;;;;;;;;;;;6128376;23;19908;-77
2023/01/07 14:45:10;;;;;;;;;;;;;;;;;;6128089;23;19951;-78
2023/01/07 14:47:36;;;;;;;;;;;;;;;;;;6128015;23;19905;-77
2023/01/07 14:50:02;;;;;;;;;;;;;;;;;;6128001;23;19901;-77
2023/01/07 14:52:28;;;;;;;;;;;;;;;;;;6128013;23;19943;-77
2023/01/07 14:54:54;;;;;;;;;;;;;;;;;;6127988;23;19901;-76
2023/01/07 14:57:20;;;;;;;;;;;;;;;;;;6128170;23;19901;-76
2023/01/07 14:59:46;;;;;;;;;;;;;;;;;;6128041;23;20239;-76
2023/01/07 15:02:12;;;;;;;;;;;;;;;;;;6127864;23;19924;-77
2023/01/07 15:04:38;;;;;;;;;;;;;;;;;;6128460;23;20379;-76
2023/01/07 15:07:04;;;;;;;;;;;;;;;;;;6127819;23;19911;-75
2023/01/07 15:17:44;;;;;;;;;;;;;;;;;;6127497;23;20358;-75
2023/01/07 15:20:10;;;;;;;;;;;;;;;;;;6127749;23;19905;-76
2023/01/07 15:22:36;;;;;;;;;;;;;;;;;;6127732;23;19901;-76
2023/01/07 15:25:01;;;;;;;;;;;;;;;;;;6128178;23;20320;-76
2023/01/07 15:27:28;;;;;;;;;;;;;;;;;;6127568;23;19905;-76
2023/01/07 15:29:53;;;;;;;;;;;;;;;;;;6127824;23;19948;-76
2023/01/07 15:32:19;;;;;;;;;;;;;;;;;;6127631;23;19901;-76
2023/01/07 15:34:45;;;;;;;;;;;;;;;;;;6127679;23;19967;-76
2023/01/07 15:37:11;;;;;;;;;;;;;;;;;;6127654;23;19901;-75
2023/01/07 15:39:40;;;;;;;;;;;;;;;;;;6127837;23;20240;-75
2023/01/07 15:42:06;;;;;;;;;;;;;;;;;;6127563;23;19900;-75
2023/01/07 15:44:32;;;;;;;;;;;;;;;;;;6127837;23;19952;-76
2023/01/07 15:46:58;;;;;;;;;;;;;;;;;;6127463;23;19908;-76
2023/01/07 15:49:24;;;;;;;;;;;;;;;;;;6127495;23;19979;-76
2023/01/07 15:51:50;;;;;;;;;;;;;;;;;;6127632;23;19908;-77
2023/01/07 15:54:16;;;;;;;;;;;;;;;;;;6127736;23;20379;-75
2023/01/07 15:56:41;;;;;;;;;;;;;;;;;;6101441;23;19905;-77
2023/01/07 15:59:08;;;;;;;;;;;;;;;;;;6127236;23;19908;-76
2023/01/07 16:01:33;;;;;;;;;;;;;;;;;;6127489;23;19905;-75
2023/01/07 16:03:59;;;;;;;;;;;;;;;;;;6127334;23;19920;-76
2023/01/07 16:06:26;;;;;;;;;;;;;;;;;;6127413;23;19912;-75
2023/01/07 16:08:52;;;;;;;;;;;;;;;;;;6127368;23;19901;-76
2023/01/07 16:11:18;;;;;;;;;;;;;;;;;;6127323;23;19908;-76
2023/01/07 16:13:43;;;;;;;;;;;;;;;;;;6127286;23;19901;-76
2023/01/07 16:16:09;;;;;;;;;;;;;;;;;;6127242;23;19908;-76
2023/01/07 16:18:35;;;;;;;;;;;;;;;;;;6101244;23;19947;-76
2023/01/07 16:21:01;;;;;;;;;;;;;;;;;;6127218;23;20216;-76
2023/01/07 16:23:27;;;;;;;;;;;;;;;;;;6127273;23;19900;-77
2023/01/07 16:25:53;;;;;;;;;;;;;;;;;;6127196;23;19901;-76
2023/01/07 16:28:19;;;;;;;;;;;;;;;;;;6127118;23;20279;-76
2023/01/07 16:30:45;;;;;;;;;;;;;;;;;;6127299;23;19972;-76
2023/01/07 16:33:11;;;;;;;;;;;;;;;;;;6101164;23;19901;-76
2023/01/07 16:35:37;;;;;;;;;;;;;;;;;;6101014;23;19984;-76
2023/01/07 16:38:03;;;;;;;;;;;;;;;;;;6127070;23;19908;-76
2023/01/07 16:40:29;;;;;;;;;;;;;;;;;;6127266;23;19905;-76
2023/01/07 16:42:55;;;;;;;;;;;;;;;;;;6101048;23;19983;-76
2023/01/07 16:45:21;;;;;;;;;;;;;;;;;;6127213;23;20320;-76
2023/01/07 16:47:47;;;;;;;;;;;;;;;;;;6127031;23;19904;-76